createdAt,value
2018-01-20T00:02:10.929Z,63.40
2018-01-20T00:04:39.249Z,63.20
2018-01-20T00:07:07.602Z,63.10
2018-01-20T00:09:47.891Z,62.90
2018-01-20T00:12:15.425Z,62.70
2018-01-20T00:14:43.799Z,62.60
2018-01-20T00:17:15.780Z,62.90
2018-01-20T00:19:44.527Z,63.10
2018-01-20T00:22:21.510Z,63.10
2018-01-20T00:24:55.498Z,62.80
2018-01-20T00:27:23.060Z,62.00
2018-01-20T00:29:51.414Z,62.90
2018-01-20T00:32:18.954Z,63.40
2018-01-20T00:34:47.288Z,62.80
2018-01-20T00:37:15.226Z,62.40
2018-01-20T00:39:43.551Z,62.30
2018-01-20T00:42:12.609Z,62.80
2018-01-20T00:44:40.936Z,62.40
2018-01-20T00:47:09.232Z,63.10
2018-01-20T00:49:37.164Z,62.90
2018-01-20T00:52:05.113Z,63.00
2018-01-20T00:54:33.430Z,63.20
2018-01-20T00:57:01.759Z,63.30
2018-01-20T00:59:30.072Z,63.80
2018-01-20T01:01:59.276Z,64.90
2018-01-20T01:04:27.591Z,65.30
2018-01-20T01:06:55.238Z,65.00
2018-01-20T01:09:23.542Z,63.60
2018-01-20T01:11:51.893Z,62.90
2018-01-20T01:14:19.896Z,62.00
2018-01-20T01:16:48.275Z,62.00
2018-01-20T01:19:15.811Z,61.80
2018-01-20T01:21:43.768Z,61.10
2018-01-20T01:24:12.074Z,61.30
2018-01-20T01:26:40.391Z,60.90
2018-01-20T01:29:08.696Z,60.70
2018-01-20T01:31:37.024Z,60.20
2018-01-20T01:34:05.530Z,60.00
2018-01-20T01:36:33.607Z,59.80
2018-01-20T01:39:01.916Z,60.30
2018-01-20T01:41:30.232Z,60.30
2018-01-20T01:43:58.567Z,61.30
2018-01-20T01:46:27.094Z,62.00
2018-01-20T01:48:55.027Z,61.80
2018-01-20T01:51:23.424Z,62.20
2018-01-20T01:53:51.732Z,61.50
2018-01-20T01:56:20.818Z,62.70
2018-01-20T01:58:48.378Z,62.50
2018-01-20T02:01:16.704Z,63.00
2018-01-20T02:03:44.658Z,62.90
2018-01-20T02:06:12.982Z,62.80
2018-01-20T02:08:40.938Z,61.20
2018-01-20T02:11:08.517Z,61.00
2018-01-20T02:13:36.082Z,61.10
2018-01-20T02:16:04.043Z,61.00
2018-01-20T02:18:32.652Z,61.00
2018-01-20T02:21:00.595Z,60.80
2018-01-20T02:23:28.971Z,61.00
2018-01-20T02:25:57.286Z,60.70
2018-01-20T02:28:25.621Z,60.60
2018-01-20T02:30:53.927Z,60.60
2018-01-20T02:33:22.263Z,61.10
2018-01-20T02:35:50.573Z,61.40
2018-01-20T02:38:18.900Z,60.60
2018-01-20T02:40:47.220Z,59.90
2018-01-20T02:43:15.547Z,61.90
2018-01-20T02:45:43.883Z,62.20
2018-01-20T02:48:12.202Z,62.00
2018-01-20T02:50:40.539Z,62.00
2018-01-20T02:53:08.866Z,63.30
2018-01-20T02:55:37.180Z,63.10
2018-01-20T02:58:05.531Z,63.80
2018-01-20T03:00:33.915Z,64.30
2018-01-20T03:03:02.235Z,64.10
2018-01-20T03:05:30.561Z,64.60
2018-01-20T03:07:58.898Z,64.10
2018-01-20T03:10:27.202Z,64.50
2018-01-20T03:12:55.521Z,64.60
2018-01-20T03:15:23.822Z,64.50
2018-01-20T03:17:52.975Z,65.20
2018-01-20T03:20:20.518Z,63.60
2018-01-20T03:22:48.843Z,63.60
2018-01-20T03:25:17.161Z,63.30
2018-01-20T03:27:45.613Z,63.30
2018-01-20T03:30:13.563Z,62.80
2018-01-20T03:32:41.943Z,62.30
2018-01-20T03:35:10.253Z,61.70
2018-01-20T03:37:38.639Z,61.30
2018-01-20T03:40:07.718Z,61.90
2018-01-20T03:42:35.481Z,61.40
2018-01-20T03:45:03.434Z,60.70
2018-01-20T03:47:30.974Z,61.00
2018-01-20T03:49:58.931Z,61.50
2018-01-20T03:52:27.273Z,61.30
2018-01-20T03:54:56.339Z,61.50
2018-01-20T03:57:23.873Z,60.90
2018-01-20T03:59:52.395Z,60.10
2018-01-20T04:02:20.324Z,59.60
2018-01-20T04:04:48.279Z,59.70
2018-01-20T04:07:16.584Z,60.80
2018-01-20T04:09:44.904Z,60.50
2018-01-20T04:12:13.213Z,61.00
2018-01-20T04:14:41.161Z,59.10
2018-01-20T04:17:09.098Z,59.70
2018-01-20T04:19:37.417Z,59.60
2018-01-20T04:22:05.727Z,60.00
2018-01-20T04:24:34.061Z,59.70
2018-01-20T04:27:02.361Z,59.30
2018-01-20T04:29:30.669Z,59.80
2018-01-20T04:31:58.965Z,59.70
2018-01-20T04:34:27.277Z,59.80
2018-01-20T04:36:55.607Z,60.60
2018-01-20T04:39:23.932Z,61.30
2018-01-20T04:41:52.242Z,60.80
2018-01-20T04:44:20.558Z,59.80
2018-01-20T04:46:48.489Z,59.00
2018-01-20T04:49:16.155Z,59.00
2018-01-20T04:51:44.102Z,60.00
2018-01-20T04:54:12.496Z,59.30
2018-01-20T04:56:40.820Z,59.40
2018-01-20T04:59:09.913Z,59.60
2018-01-20T05:01:37.599Z,59.40
2018-01-20T05:04:05.917Z,59.50
2018-01-20T05:06:34.234Z,60.30
2018-01-20T05:09:03.276Z,62.00
2018-01-20T05:11:30.837Z,62.10
2018-01-20T05:13:59.141Z,62.50
2018-01-20T05:16:27.462Z,63.10
2018-01-20T05:18:55.875Z,63.50
2018-01-20T05:21:24.189Z,63.50
2018-01-20T05:23:53.242Z,65.50
2018-01-20T05:26:21.929Z,66.50
2018-01-20T05:28:49.506Z,65.90
2018-01-20T05:31:17.462Z,65.60
2018-01-20T05:33:45.763Z,65.00
2018-01-20T05:36:14.090Z,64.70
2018-01-20T05:38:42.511Z,61.10
2018-01-20T05:41:10.838Z,64.50
2018-01-20T05:43:39.149Z,65.60
2018-01-20T05:46:07.476Z,66.40
2018-01-20T05:48:35.778Z,66.90
2018-01-20T05:51:04.110Z,65.80
2018-01-20T05:53:33.173Z,66.20
2018-01-20T05:56:00.732Z,65.50
2018-01-20T05:58:29.035Z,66.10
2018-01-20T06:00:57.362Z,65.20
2018-01-20T06:03:25.658Z,64.40
2018-01-20T06:05:53.974Z,65.00
2018-01-20T06:08:22.458Z,65.50
2018-01-20T06:10:51.530Z,66.00
2018-01-20T06:13:19.471Z,65.20
2018-01-20T06:15:47.405Z,66.10
2018-01-20T06:18:15.857Z,66.20
2018-01-20T06:20:43.788Z,65.70
2018-01-20T06:23:11.352Z,66.20
2018-01-20T06:25:40.038Z,68.20
2018-01-20T06:28:07.595Z,66.90
2018-01-20T06:30:35.905Z,65.90
2018-01-20T06:33:04.243Z,65.90
2018-01-20T06:35:32.643Z,65.70
2018-01-20T06:38:00.962Z,65.30
2018-01-20T06:40:29.402Z,65.60
2018-01-20T06:42:57.371Z,64.90
2018-01-20T06:45:25.799Z,65.10
2018-01-20T06:47:54.114Z,64.60
2018-01-20T06:50:22.413Z,64.00
2018-01-20T06:52:50.739Z,63.90
2018-01-20T06:55:19.034Z,63.70
2018-01-20T06:57:47.358Z,63.60
2018-01-20T07:00:16.406Z,64.00
2018-01-20T07:02:44.075Z,63.40
2018-01-20T07:05:12.402Z,63.50
2018-01-20T07:07:40.739Z,63.50
2018-01-20T07:10:09.055Z,63.50
2018-01-20T07:12:37.433Z,63.70
2018-01-20T07:15:06.479Z,64.50
2018-01-20T07:17:34.037Z,64.50
2018-01-20T07:20:02.356Z,64.40
2018-01-20T07:22:31.426Z,65.00
2018-01-20T07:24:59.082Z,64.40
2018-01-20T07:27:27.418Z,64.70
2018-01-20T07:29:55.719Z,64.50
2018-01-20T07:32:24.056Z,64.50
2018-01-20T07:34:52.364Z,64.10
2018-01-20T07:37:20.351Z,63.90
2018-01-20T07:39:48.681Z,63.70
2018-01-20T07:42:16.220Z,63.70
2018-01-20T07:44:44.175Z,63.80
2018-01-20T07:47:12.497Z,63.80
2018-01-20T07:49:40.814Z,64.00
2018-01-20T07:52:09.135Z,63.60
2018-01-20T07:54:37.465Z,63.50
2018-01-20T07:57:05.773Z,63.30
2018-01-20T07:59:34.119Z,62.90
2018-01-20T08:02:02.431Z,62.80
2018-01-20T08:04:31.537Z,63.50
2018-01-20T08:06:59.113Z,63.30
2018-01-20T08:09:27.443Z,63.50
2018-01-20T08:11:56.370Z,63.30
2018-01-20T08:14:25.229Z,64.10
2018-01-20T08:16:52.768Z,64.00
2018-01-20T08:19:21.462Z,65.00
2018-01-20T08:21:49.766Z,64.90
2018-01-20T08:24:17.326Z,64.60
2018-01-20T08:26:45.630Z,64.70
2018-01-20T08:29:13.973Z,64.70
2018-01-20T08:31:42.286Z,64.20
2018-01-20T08:34:10.613Z,64.50
2018-01-20T08:36:38.925Z,64.50
2018-01-20T08:39:06.491Z,63.80
2018-01-20T08:41:34.041Z,63.50
2018-01-20T08:44:02.376Z,63.00
2018-01-20T08:46:29.918Z,62.90
2018-01-20T08:48:57.949Z,62.50
2018-01-20T08:51:26.409Z,62.60
2018-01-20T08:53:54.366Z,63.60
2018-01-20T08:56:22.777Z,63.80
2018-01-20T08:58:51.102Z,63.60
2018-01-20T09:01:19.400Z,62.90
2018-01-20T09:03:47.709Z,63.90
2018-01-20T09:06:16.119Z,64.70
2018-01-20T09:08:44.545Z,64.00
2018-01-20T09:11:12.861Z,63.40
2018-01-20T09:13:41.183Z,63.20
2018-01-20T09:16:10.278Z,63.50
2018-01-20T09:18:37.805Z,62.50
2018-01-20T09:21:06.122Z,63.20
2018-01-20T09:23:34.424Z,64.00
2018-01-20T09:26:02.737Z,64.10
2018-01-20T09:28:31.043Z,63.30
2018-01-20T09:30:59.369Z,63.70
2018-01-20T09:33:27.664Z,64.90
2018-01-20T09:35:55.986Z,63.40
2018-01-20T09:38:24.389Z,62.40
2018-01-20T09:40:52.700Z,63.90
2018-01-20T09:43:21.006Z,64.70
2018-01-20T09:45:49.329Z,64.70
2018-01-20T09:48:17.632Z,64.00
2018-01-20T09:50:45.956Z,64.10
2018-01-20T09:53:14.265Z,64.60
2018-01-20T09:55:42.669Z,64.70
2018-01-20T09:58:10.969Z,65.00
2018-01-20T10:00:39.292Z,64.50
2018-01-20T10:03:07.600Z,65.70
2018-01-20T10:05:35.949Z,64.10
2018-01-20T10:08:04.246Z,64.30
2018-01-20T10:10:32.565Z,64.60
2018-01-20T10:13:00.983Z,63.80
2018-01-20T10:15:29.294Z,62.80
2018-01-20T10:17:58.327Z,64.80
2018-01-20T10:20:26.642Z,65.30
2018-01-20T10:22:54.194Z,64.20
2018-01-20T10:25:22.494Z,63.80
2018-01-20T10:27:51.552Z,64.60
2018-01-20T10:30:19.161Z,63.80
2018-01-20T10:32:47.483Z,63.70
2018-01-20T10:35:15.801Z,63.20
2018-01-20T10:37:43.358Z,63.50
2018-01-20T10:40:11.361Z,64.00
2018-01-20T10:42:39.687Z,64.30
2018-01-20T10:45:08.011Z,63.40
2018-01-20T10:47:36.375Z,63.80
2018-01-20T10:50:04.824Z,63.60
2018-01-20T10:52:33.135Z,64.00
2018-01-20T10:55:02.192Z,64.20
2018-01-20T10:57:29.751Z,63.10
2018-01-20T10:59:58.053Z,64.20
2018-01-20T11:02:26.366Z,62.80
2018-01-20T11:04:54.721Z,63.00
2018-01-20T11:07:23.067Z,63.00
2018-01-20T11:09:51.480Z,62.50
2018-01-20T11:12:19.845Z,61.80
2018-01-20T11:14:48.150Z,62.20
2018-01-20T11:17:16.471Z,61.90
2018-01-20T11:19:44.774Z,61.30
2018-01-20T11:22:13.090Z,61.00
2018-01-20T11:24:41.389Z,60.10
2018-01-20T11:27:08.946Z,59.40
2018-01-20T11:29:36.874Z,59.20
2018-01-20T11:32:05.205Z,60.00
2018-01-20T11:34:33.511Z,59.60
2018-01-20T11:37:01.838Z,59.50
2018-01-20T11:39:29.774Z,59.90
2018-01-20T11:41:58.199Z,61.00
2018-01-20T11:44:26.143Z,59.40
2018-01-20T11:46:53.726Z,59.90
2018-01-20T11:49:22.108Z,60.00
2018-01-20T11:51:50.411Z,59.30
2018-01-20T11:54:18.759Z,58.50
2018-01-20T11:56:46.309Z,58.60
2018-01-20T11:59:14.268Z,59.10
2018-01-20T12:01:42.578Z,59.60
2018-01-20T12:04:10.907Z,59.70
2018-01-20T12:06:39.287Z,59.90
2018-01-20T12:09:07.638Z,60.00
2018-01-20T12:11:37.205Z,59.70
2018-01-20T12:14:05.531Z,59.40
2018-01-20T12:16:34.575Z,58.90
2018-01-20T12:19:02.142Z,58.70
2018-01-20T12:21:30.516Z,58.70
2018-01-20T12:23:58.121Z,58.10
2018-01-20T12:26:26.138Z,59.00
2018-01-20T12:28:54.470Z,58.90
2018-01-20T12:31:22.844Z,58.70
2018-01-20T12:33:50.873Z,57.80
2018-01-20T12:36:19.252Z,56.90
2018-01-20T12:38:47.561Z,57.20
2018-01-20T12:41:15.907Z,57.60
2018-01-20T12:43:44.222Z,57.70
2018-01-20T12:46:11.752Z,57.90
2018-01-20T12:48:40.447Z,58.70
2018-01-20T12:51:08.002Z,57.60
2018-01-20T12:53:36.318Z,57.40
2018-01-20T12:56:05.362Z,58.70
2018-01-20T12:58:32.924Z,58.70
2018-01-20T13:01:01.298Z,58.80
2018-01-20T13:03:29.678Z,58.40
2018-01-20T13:05:57.977Z,58.30
2018-01-20T13:08:25.535Z,59.60
2018-01-20T13:10:53.481Z,59.30
2018-01-20T13:13:21.789Z,58.00
2018-01-20T13:15:50.138Z,58.70
2018-01-20T13:18:18.457Z,59.30
2018-01-20T13:20:47.498Z,59.80
2018-01-20T13:23:15.049Z,59.90
2018-01-20T13:25:43.048Z,59.70
2018-01-20T13:28:10.574Z,60.40
2018-01-20T13:30:38.897Z,59.50
2018-01-20T13:33:07.190Z,59.50
2018-01-20T13:35:35.501Z,59.70
2018-01-20T13:38:03.803Z,60.20
2018-01-20T13:40:32.182Z,61.20
2018-01-20T13:42:59.706Z,59.80
2018-01-20T13:45:27.654Z,60.70
2018-01-20T13:47:56.699Z,61.70
2018-01-20T13:50:24.365Z,61.40
2018-01-20T13:52:52.682Z,62.00
2018-01-20T13:55:21.020Z,62.00
2018-01-20T13:57:49.318Z,61.30
2018-01-20T14:00:16.866Z,60.90
2018-01-20T14:02:44.791Z,61.60
2018-01-20T14:05:13.331Z,62.10
2018-01-20T14:07:41.735Z,62.40
2018-01-20T14:10:10.798Z,62.10
2018-01-20T14:12:39.481Z,63.20
2018-01-20T14:15:07.845Z,63.30
2018-01-20T14:17:36.223Z,62.70
2018-01-20T14:20:04.550Z,63.10
2018-01-20T14:22:32.849Z,62.80
2018-01-20T14:25:01.257Z,63.10
2018-01-20T14:27:28.788Z,62.30
2018-01-20T14:29:56.742Z,61.70
2018-01-20T14:32:25.056Z,62.10
2018-01-20T14:34:53.376Z,62.30
2018-01-20T14:37:22.754Z,62.70
2018-01-20T14:39:50.718Z,61.90
2018-01-20T14:42:18.371Z,62.40
2018-01-20T14:44:46.692Z,63.20
2018-01-20T14:47:15.027Z,63.20
2018-01-20T14:49:43.408Z,62.70
2018-01-20T14:52:11.785Z,63.90
2018-01-20T14:54:39.330Z,63.30
2018-01-20T14:57:07.285Z,63.30
2018-01-20T14:59:35.573Z,63.30
2018-01-20T15:02:03.919Z,63.90
2018-01-20T15:04:32.213Z,64.00
2018-01-20T15:07:00.562Z,63.50
2018-01-20T15:09:29.007Z,63.10
2018-01-20T15:11:57.322Z,63.50
2018-01-20T15:14:25.625Z,63.70
2018-01-20T15:16:54.036Z,63.40
2018-01-20T15:19:22.338Z,63.70
2018-01-20T15:21:50.803Z,63.80
2018-01-20T15:24:19.094Z,63.80
2018-01-20T15:26:47.414Z,63.50
2018-01-20T15:29:15.729Z,63.20
2018-01-20T15:31:44.101Z,63.40
2018-01-20T15:34:12.480Z,63.40
2018-01-20T15:36:40.803Z,63.70
2018-01-20T15:39:09.152Z,62.90
2018-01-20T15:41:37.490Z,63.20
2018-01-20T15:44:06.017Z,63.30
2018-01-20T15:46:34.378Z,63.20
2018-01-20T15:49:02.716Z,63.40
2018-01-20T15:51:31.025Z,63.60
2018-01-20T15:53:59.473Z,63.30
2018-01-20T15:56:27.794Z,63.00
2018-01-20T15:58:56.180Z,62.90
2018-01-20T16:01:24.576Z,63.20
2018-01-20T16:03:52.985Z,63.30
2018-01-20T16:06:21.285Z,63.70
2018-01-20T16:08:49.608Z,63.60
2018-01-20T16:11:17.898Z,63.50
2018-01-20T16:13:46.217Z,64.70
2018-01-20T16:16:14.550Z,63.30
2018-01-20T16:18:42.885Z,63.70
2018-01-20T16:21:11.193Z,63.20
2018-01-20T16:23:39.649Z,63.90
2018-01-20T16:26:07.954Z,63.80
2018-01-20T16:28:36.382Z,64.20
2018-01-20T16:31:04.732Z,64.20
2018-01-20T16:33:33.064Z,64.10
2018-01-20T16:36:01.357Z,63.40
2018-01-20T16:38:29.669Z,63.10
2018-01-20T16:40:57.970Z,62.90
2018-01-20T16:43:25.910Z,62.90
2018-01-20T16:45:54.209Z,63.40
2018-01-20T16:48:21.817Z,63.90
2018-01-20T16:50:50.202Z,64.20
2018-01-20T16:53:18.550Z,63.90
2018-01-20T16:55:46.851Z,64.20
2018-01-20T16:58:15.174Z,64.30
2018-01-20T17:00:43.521Z,64.30
2018-01-20T17:03:11.872Z,63.90
2018-01-20T17:05:40.233Z,63.90
2018-01-20T17:08:08.615Z,63.90
2018-01-20T17:10:36.905Z,64.80
2018-01-20T17:13:05.378Z,65.50
2018-01-20T17:15:33.675Z,66.00
2018-01-20T17:18:02.062Z,65.40
2018-01-20T17:20:30.387Z,64.50
2018-01-20T17:22:58.708Z,64.40
2018-01-20T17:25:27.059Z,63.90
2018-01-20T17:27:55.438Z,64.50
2018-01-20T17:30:23.750Z,65.50
2018-01-20T17:32:52.202Z,65.50
2018-01-20T17:35:20.493Z,65.20
2018-01-20T17:37:48.805Z,65.30
2018-01-20T17:40:17.168Z,66.30
2018-01-20T17:42:45.489Z,66.50
2018-01-20T17:45:13.822Z,66.50
2018-01-20T17:47:41.367Z,66.00
2018-01-20T17:50:09.361Z,65.20
2018-01-20T17:52:38.404Z,65.90
2018-01-20T17:55:05.965Z,64.70
2018-01-20T17:57:34.261Z,64.60
2018-01-20T18:00:02.692Z,63.90
2018-01-20T18:02:31.076Z,64.20
2018-01-20T18:04:59.479Z,64.20
2018-01-20T18:07:27.778Z,64.10
2018-01-20T18:09:56.090Z,64.00
2018-01-20T18:12:24.410Z,63.60
2018-01-20T18:14:52.717Z,64.40
2018-01-20T18:17:21.019Z,63.30
2018-01-20T18:19:49.329Z,64.40
2018-01-20T18:22:17.301Z,63.40
2018-01-20T18:24:45.248Z,63.10
2018-01-20T18:27:13.177Z,62.80
2018-01-20T18:29:41.539Z,62.80
2018-01-20T18:32:09.837Z,62.50
2018-01-20T18:34:38.193Z,62.50
2018-01-20T18:37:06.683Z,62.60
2018-01-20T18:39:35.049Z,62.50
2018-01-20T18:42:03.410Z,62.50
2018-01-20T18:44:31.722Z,62.60
2018-01-20T18:47:00.179Z,62.70
2018-01-20T18:49:28.161Z,62.70
2018-01-20T18:51:56.625Z,62.80
2018-01-20T18:54:24.924Z,62.70
2018-01-20T18:56:53.297Z,63.00
2018-01-20T18:59:21.664Z,63.10
2018-01-20T19:01:49.979Z,63.80
2018-01-20T19:04:18.432Z,63.80
2018-01-20T19:06:46.745Z,64.30
2018-01-20T19:09:15.320Z,64.40
2018-01-20T19:11:44.400Z,65.10
2018-01-20T19:14:12.030Z,64.40
2018-01-20T19:16:40.052Z,64.50
2018-01-20T19:19:08.409Z,64.40
2018-01-20T19:21:36.725Z,64.00
2018-01-20T19:24:05.080Z,63.90
2018-01-20T19:26:33.487Z,63.80
2018-01-20T19:29:01.882Z,63.80
2018-01-20T19:31:30.384Z,63.60
2018-01-20T19:33:58.724Z,63.60
2018-01-20T19:36:27.105Z,63.20
2018-01-20T19:38:55.456Z,63.70
2018-01-20T19:41:23.774Z,63.70
2018-01-20T19:43:52.144Z,63.60
2018-01-20T19:46:20.458Z,63.50
2018-01-20T19:48:48.801Z,63.40
2018-01-20T19:51:17.341Z,63.10
2018-01-20T19:53:45.704Z,63.10
2018-01-20T19:56:14.045Z,63.60
2018-01-20T19:58:42.016Z,63.50
2018-01-20T20:01:10.016Z,63.70
2018-01-20T20:03:37.597Z,63.60
2018-01-20T20:06:06.673Z,64.20
2018-01-20T20:08:34.232Z,63.60
2018-01-20T20:11:02.617Z,63.60
2018-01-20T20:13:30.978Z,63.80
2018-01-20T20:15:59.346Z,63.60
2018-01-20T20:18:27.698Z,63.40
2018-01-20T20:20:56.107Z,63.80
2018-01-20T20:23:24.442Z,63.70
2018-01-20T20:25:52.732Z,63.60
2018-01-20T20:28:21.101Z,63.70
2018-01-20T20:30:49.451Z,64.90
2018-01-20T20:33:17.762Z,65.10
2018-01-20T20:35:46.061Z,64.70
2018-01-20T20:38:14.416Z,64.30
2018-01-20T20:40:42.761Z,64.30
2018-01-20T20:43:11.869Z,64.70
2018-01-20T20:45:39.932Z,63.90
2018-01-20T20:48:07.941Z,63.90
2018-01-20T20:50:36.238Z,63.70
2018-01-20T20:53:04.595Z,63.70
2018-01-20T20:55:32.948Z,63.70
2018-01-20T20:58:01.336Z,63.60
2018-01-20T21:00:29.713Z,63.50
2018-01-20T21:02:58.068Z,63.20
2018-01-20T21:05:26.518Z,63.30
2018-01-20T21:07:55.206Z,63.80
2018-01-20T21:10:22.868Z,63.30
2018-01-20T21:12:51.371Z,63.60
2018-01-20T21:15:19.728Z,63.80
2018-01-20T21:17:48.110Z,63.70
2018-01-20T21:20:16.457Z,63.70
2018-01-20T21:22:44.534Z,63.60
2018-01-20T21:25:12.933Z,63.70
2018-01-20T21:27:41.254Z,63.60
2018-01-20T21:30:09.612Z,63.40
2018-01-20T21:32:37.928Z,64.00
2018-01-20T21:35:06.452Z,64.10
2018-01-20T21:37:34.924Z,64.10
2018-01-20T21:40:03.306Z,64.00
2018-01-20T21:42:31.350Z,63.90
2018-01-20T21:44:59.957Z,64.20
2018-01-20T21:47:28.453Z,64.20
2018-01-20T21:49:58.354Z,64.50
2018-01-20T21:52:26.374Z,64.30
2018-01-20T21:54:54.775Z,64.20
2018-01-20T21:57:22.358Z,64.00
2018-01-20T21:59:50.724Z,64.70
2018-01-20T22:02:18.308Z,64.20
2018-01-20T22:04:46.287Z,63.90
2018-01-20T22:07:13.910Z,63.90
2018-01-20T22:09:41.545Z,63.90
2018-01-20T22:12:09.117Z,63.70
2018-01-20T22:14:36.741Z,64.00
2018-01-20T22:17:05.090Z,64.70
2018-01-20T22:19:33.308Z,64.60
2018-01-20T22:22:00.998Z,64.50
2018-01-20T22:24:28.631Z,64.20
2018-01-20T22:26:56.238Z,64.30
2018-01-20T22:29:23.896Z,64.30
2018-01-20T22:31:52.998Z,65.00
2018-01-20T22:34:20.624Z,64.60
2018-01-20T22:36:48.182Z,65.00
2018-01-20T22:39:16.534Z,64.80
2018-01-20T22:41:44.892Z,65.60
2018-01-20T22:44:12.451Z,64.90
2018-01-20T22:46:40.762Z,65.60
2018-01-20T22:49:08.321Z,65.00
2018-01-20T22:51:35.946Z,64.90
2018-01-20T22:54:03.579Z,64.80
2018-01-20T22:56:31.170Z,64.80
2018-01-20T22:58:59.511Z,65.20
2018-01-20T23:01:27.050Z,64.70
2018-01-20T23:03:54.636Z,65.00
2018-01-20T23:06:22.251Z,64.90
2018-01-20T23:08:49.844Z,65.00
2018-01-20T23:11:17.444Z,64.90
2018-01-20T23:13:45.008Z,64.50
2018-01-20T23:16:13.337Z,64.60
2018-01-20T23:18:40.882Z,64.80
2018-01-20T23:21:08.433Z,65.20
2018-01-20T23:23:35.975Z,65.90
2018-01-20T23:26:04.286Z,66.40
2018-01-20T23:28:31.806Z,65.60
2018-01-20T23:31:00.152Z,66.30
2018-01-20T23:33:29.284Z,66.50
2018-01-20T23:35:57.610Z,66.60
2018-01-20T23:38:26.285Z,66.00
2018-01-20T23:40:54.254Z,66.10
2018-01-20T23:43:22.016Z,67.20
2018-01-20T23:45:49.620Z,67.60
2018-01-20T23:48:17.969Z,68.60
2018-01-20T23:50:45.572Z,68.70
2018-01-20T23:53:13.916Z,68.80
2018-01-20T23:55:41.872Z,68.50
2018-01-20T23:58:09.435Z,68.00
